メインページ
METAR-TAF:

METAR-TAF

空港 :

マデイラ空港

フンシャル, マデイラ諸島, ポルトガル

緯度: 32-41-52N, 経度: 016-46-28W, 海抜: 59m

現時点の気象観測

当レポートは15分前の07:00(UTC)に作成
北東の風 4kt、からの間で変化する
気温 23°C
湿度 65%
気圧 1019 hPa
視程10km以上
高度1500ftの雲は散在している
高度3000ftの千切れ雲あり

METAR: LPMA 190700Z 04004KT 350V080 9999 SCT015 BKN030 23/16 Q1019

時間: 08:15 (07:15 UTC)

予報

当レポートは2時間15分前の05:00(UTC)に作成
予報は19日の 06時(UTC)から 20日の 06時(UTC)まで有効
北/北東の風 8kt
視程10km以上
高度1600ftの雲は散在している
19日の 06時(UTC)から 19日の 09時(UTC)まで一時的に
高度1500ftの千切れ雲あり
19日の 06時(UTC)から 20日の 06時(UTC)まで一時的に
変向風 5kt

TAF: LPMA 190500Z 1906/2006 02008KT 9999 SCT016 TEMPO 1906/1909 BKN015 TEMPO 1906/2006 VRB05KT

4,000以上の空港の気象観測と天気予報(METAR報とTAF報)

利用可能な観測所は地図上に黄色い丸と赤い丸で示す。

丸の上にカーソルを重ねると観測所名を参照できる。

次にクリックすると気象観測と天気予報を参照できる。

マップの切り替え:黒色「×」印の緑ボタンをクリックして拡大、「-」印の緑ボタンをクリックして縮小、緑色の三角印をクリックして隣りの地図に切り替え


METAR-TAF: